Time;durP1;ratioP1;P1;durP2;ratioP2;P2;SDS_P1;SDS_P2;PMS_P1;PMS_P2;Temp;Humidity;BMP_temperature;BMP_pressure;BME280_temperature;BME280_humidity;BME280_pressure;Samples;Min_cycle;Max_cycle;Signal;HPM_P1;HPM_P2
2023/09/04 00:00:36;;;;;;;5.80;5.30;;;14.10;99.90;;;;;;490488;241;28468;-73
2023/09/04 00:05:01;;;;;;;5.97;5.37;;;14.10;99.90;;;;;;490429;242;28572;-73
2023/09/04 00:07:02;;;;;;;6.30;5.20;;;14.00;99.90;;;;;;490504;241;28514;-73
2023/09/04 00:09:04;;;;;;;6.67;6.00;;;14.00;99.90;;;;;;490473;241;28527;-75
2023/09/04 00:11:12;;;;;;;7.00;5.13;;;14.00;99.90;;;;;;490454;242;28313;-73
2023/09/04 00:13:14;;;;;;;5.93;5.13;;;14.00;99.90;;;;;;490469;241;28460;-74
2023/09/04 00:15:24;;;;;;;6.20;5.60;;;14.00;99.90;;;;;;490506;241;29340;-75
2023/09/04 00:17:25;;;;;;;5.40;4.90;;;14.00;99.90;;;;;;490500;241;28542;-76
2023/09/04 00:19:34;;;;;;;5.07;4.57;;;14.00;99.90;;;;;;490484;242;28462;-73
2023/09/04 00:21:34;;;;;;;6.43;5.50;;;14.00;99.90;;;;;;490512;241;28326;-73
2023/09/04 00:23:41;;;;;;;6.20;5.60;;;14.00;99.90;;;;;;490491;241;28879;-73
2023/09/04 00:25:43;;;;;;;6.00;5.40;;;14.00;99.90;;;;;;490460;241;28418;-72
2023/09/04 00:27:45;;;;;;;7.53;5.60;;;14.00;99.90;;;;;;490412;241;28296;-73
2023/09/04 00:29:46;;;;;;;8.27;5.33;;;14.00;99.90;;;;;;490533;241;28493;-73
2023/09/04 00:31:47;;;;;;;5.33;4.83;;;14.00;99.90;;;;;;490492;241;28643;-74
2023/09/04 00:33:49;;;;;;;7.77;5.40;;;14.00;99.90;;;;;;490474;241;28364;-75
2023/09/04 00:35:51;;;;;;;6.40;4.97;;;14.00;99.90;;;;;;490503;241;28556;-75
2023/09/04 00:37:52;;;;;;;6.20;5.17;;;13.90;99.90;;;;;;490507;241;28394;-75
2023/09/04 00:39:55;;;;;;;6.30;5.70;;;14.00;99.90;;;;;;490537;241;28960;-75
2023/09/04 00:41:56;;;;;;;6.53;5.40;;;13.90;99.90;;;;;;490555;241;28391;-75
2023/09/04 00:46:30;;;;;;;9.40;5.80;;;;;;;;;;490553;242;28076;-77
2023/09/04 00:48:31;;;;;;;6.07;5.40;;;13.90;99.90;;;;;;490517;242;27039;-75
2023/09/04 00:50:39;;;;;;;6.40;5.70;;;13.80;99.90;;;;;;490509;242;28673;-75
2023/09/04 00:52:41;;;;;;;5.87;5.27;;;13.80;99.90;;;;;;490488;242;28630;-75
2023/09/04 00:54:48;;;;;;;8.47;5.97;;;13.70;99.90;;;;;;490539;241;28852;-75
2023/09/04 00:56:51;;;;;;;6.60;5.37;;;13.60;99.90;;;;;;490519;241;28176;-73
2023/09/04 00:58:59;;;;;;;6.27;5.77;;;13.70;99.90;;;;;;490431;241;28198;-74
2023/09/04 01:01:03;;;;;;;7.20;5.20;;;;;;;;;;490422;241;28313;-73
2023/09/04 01:03:09;;;;;;;6.97;5.10;;;13.60;99.90;;;;;;490499;242;26600;-73
2023/09/04 01:05:10;;;;;;;8.60;5.97;;;13.60;99.90;;;;;;490522;241;28080;-75
2023/09/04 01:07:27;;;;;;;6.03;5.50;;;13.50;99.90;;;;;;490485;241;28179;-74
2023/09/04 01:09:28;;;;;;;6.10;5.50;;;13.40;99.90;;;;;;490514;241;28281;-76
2023/09/04 01:11:39;;;;;;;7.40;6.20;;;13.40;99.90;;;;;;490529;241;28294;-74
2023/09/04 01:13:40;;;;;;;6.30;5.70;;;13.40;99.90;;;;;;490462;241;28393;-73
2023/09/04 01:15:42;;;;;;;6.83;5.60;;;13.40;99.90;;;;;;490467;241;28198;-73
2023/09/04 01:17:44;;;;;;;5.20;4.70;;;13.40;99.90;;;;;;490491;241;28170;-73
2023/09/04 01:19:50;;;;;;;7.30;5.60;;;13.40;99.90;;;;;;490527;241;28315;-73
2023/09/04 01:21:51;;;;;;;8.37;5.87;;;13.50;99.90;;;;;;490522;241;28337;-73
2023/09/04 01:23:57;;;;;;;8.97;6.00;;;13.40;99.90;;;;;;490493;241;28866;-73
2023/09/04 01:25:57;;;;;;;7.20;5.60;;;13.40;99.90;;;;;;490471;241;28187;-75
2023/09/04 01:27:58;;;;;;;8.43;6.30;;;13.40;99.90;;;;;;490463;241;28167;-73
2023/09/04 01:30:12;;;;;;;6.27;5.67;;;13.40;99.90;;;;;;490523;241;28854;-73
2023/09/04 01:32:13;;;;;;;6.20;5.40;;;13.40;99.90;;;;;;490503;241;28337;-73
2023/09/04 01:34:20;;;;;;;6.50;5.80;;;13.40;99.90;;;;;;490512;241;28444;-73
2023/09/04 01:36:21;;;;;;;5.50;4.93;;;13.40;99.90;;;;;;490499;241;28202;-73
2023/09/04 01:38:23;;;;;;;7.00;5.30;;;13.50;99.90;;;;;;490494;241;28443;-73
2023/09/04 01:40:24;;;;;;;6.23;5.17;;;13.50;99.90;;;;;;490528;241;28262;-73
2023/09/04 01:42:43;;;;;;;6.67;5.40;;;13.50;99.90;;;;;;490502;241;28222;-73
2023/09/04 01:44:46;;;;;;;5.97;5.37;;;;;;;;;;490478;241;28352;-75
2023/09/04 01:46:47;;;;;;;5.63;5.13;;;13.50;99.90;;;;;;490512;242;26631;-73
2023/09/04 01:48:49;;;;;;;6.47;5.80;;;13.50;99.90;;;;;;490498;241;28186;-74
2023/09/04 01:50:50;;;;;;;6.87;6.17;;;13.50;99.90;;;;;;490479;241;28203;-74
2023/09/04 01:52:51;;;;;;;7.17;6.17;;;13.50;99.90;;;;;;490242;241;29345;-73
2023/09/04 01:54:52;;;;;;;6.17;5.57;;;13.50;99.90;;;;;;489863;241;29116;-74
2023/09/04 01:56:53;;;;;;;6.00;5.40;;;13.50;99.90;;;;;;489777;241;29144;-74
2023/09/04 02:00:59;;;;;;;6.73;5.97;;;13.50;99.90;;;;;;490472;241;28263;-75
2023/09/04 02:03:01;;;;;;;6.57;5.60;;;13.50;99.90;;;;;;490506;241;28264;-74
2023/09/04 02:05:02;;;;;;;10.97;7.00;;;13.50;99.90;;;;;;490536;241;28182;-73
2023/09/04 02:07:06;;;;;;;11.43;7.20;;;;;;;;;;490511;241;28896;-73
2023/09/04 02:09:06;;;;;;;8.03;7.23;;;13.40;99.90;;;;;;490489;242;26608;-73
2023/09/04 02:11:09;;;;;;;6.23;5.60;;;13.50;99.90;;;;;;490526;241;28373;-73
2023/09/04 02:13:11;;;;;;;6.17;5.57;;;13.50;99.90;;;;;;490517;241;28829;-73
2023/09/04 02:15:30;;;;;;;6.67;5.97;;;13.50;99.90;;;;;;490483;241;28376;-73
2023/09/04 02:17:31;;;;;;;6.73;5.50;;;13.50;99.90;;;;;;490495;242;28209;-73
2023/09/04 02:19:34;;;;;;;8.13;7.03;;;13.50;99.90;;;;;;490480;241;28334;-73
2023/09/04 02:21:35;;;;;;;7.37;6.57;;;13.60;99.90;;;;;;490517;241;28232;-72
2023/09/04 02:23:42;;;;;;;7.93;6.20;;;13.60;99.90;;;;;;490503;241;28276;-73
2023/09/04 02:25:43;;;;;;;6.37;5.77;;;13.60;99.90;;;;;;490521;241;28173;-72
2023/09/04 02:27:45;;;;;;;9.37;8.40;;;13.60;99.90;;;;;;490516;241;28589;-73
2023/09/04 02:29:47;;;;;;;7.70;6.00;;;;;;;;;;490443;242;28749;-73
2023/09/04 02:31:48;;;;;;;7.83;6.83;;;13.40;99.90;;;;;;490497;242;26691;-73
2023/09/04 02:33:50;;;;;;;6.30;5.70;;;13.50;99.90;;;;;;490482;241;28323;-74
2023/09/04 02:35:52;;;;;;;7.40;6.03;;;13.50;99.90;;;;;;490441;242;28207;-73
2023/09/04 02:37:52;;;;;;;6.83;5.90;;;13.50;99.90;;;;;;490462;241;28237;-73
2023/09/04 02:39:53;;;;;;;6.27;5.53;;;13.40;99.90;;;;;;490522;242;28721;-73
2023/09/04 02:42:04;;;;;;;6.47;5.93;;;13.50;99.90;;;;;;490513;242;28659;-73
2023/09/04 02:44:05;;;;;;;8.00;6.50;;;13.50;99.90;;;;;;490465;241;28576;-73
2023/09/04 02:46:12;;;;;;;7.27;6.07;;;13.40;99.90;;;;;;490473;241;28237;-73
2023/09/04 02:48:13;;;;;;;9.50;6.80;;;13.40;99.90;;;;;;490483;241;28200;-73
2023/09/04 02:50:15;;;;;;;8.13;6.70;;;13.40;99.90;;;;;;490503;241;28273;-72
2023/09/04 02:52:21;;;;;;;8.40;7.27;;;13.40;99.90;;;;;;490506;242;28807;-73
2023/09/04 02:54:22;;;;;;;9.57;7.30;;;13.30;99.90;;;;;;490481;241;28289;-73
2023/09/04 02:56:26;;;;;;;8.07;6.90;;;13.30;99.90;;;;;;490456;241;28167;-73
2023/09/04 02:58:28;;;;;;;8.23;6.80;;;13.20;99.90;;;;;;490471;241;28222;-73
2023/09/04 03:00:29;;;;;;;9.70;6.67;;;13.20;99.90;;;;;;490489;241;28218;-73
2023/09/04 03:02:31;;;;;;;10.93;6.30;;;;;;;;;;490507;241;28596;-73
2023/09/04 03:04:33;;;;;;;6.63;5.93;;;13.20;99.90;;;;;;490469;242;26498;-73
2023/09/04 03:06:34;;;;;;;12.47;7.67;;;13.30;99.90;;;;;;490495;241;28201;-73
2023/09/04 03:08:41;;;;;;;7.03;6.33;;;13.30;99.90;;;;;;490539;241;29167;-73
2023/09/04 03:10:43;;;;;;;7.57;5.73;;;;;;;;;;490528;241;28300;-72
2023/09/04 03:12:51;;;;;;;6.80;6.20;;;13.30;99.90;;;;;;490311;242;26551;-73
2023/09/04 03:14:52;;;;;;;8.23;6.10;;;13.30;99.90;;;;;;490510;241;28396;-73
2023/09/04 03:16:59;;;;;;;6.40;5.60;;;13.30;99.90;;;;;;490489;241;28229;-73
2023/09/04 03:19:01;;;;;;;6.13;5.53;;;13.30;99.90;;;;;;490482;241;28841;-73
2023/09/04 03:21:02;;;;;;;6.20;5.60;;;13.30;99.90;;;;;;490469;241;28350;-73
2023/09/04 03:23:03;;;;;;;7.23;6.10;;;13.30;99.90;;;;;;490452;241;28814;-73
2023/09/04 03:25:14;;;;;;;6.20;5.60;;;13.30;99.90;;;;;;490516;241;28167;-75
2023/09/04 03:27:15;;;;;;;6.40;5.80;;;13.20;99.90;;;;;;490520;241;28568;-74
2023/09/04 03:29:25;;;;;;;5.77;5.27;;;13.30;99.90;;;;;;490491;241;28215;-73
2023/09/04 03:31:26;;;;;;;6.80;6.10;;;13.20;99.90;;;;;;490456;241;28242;-73
2023/09/04 03:33:28;;;;;;;6.03;5.37;;;13.20;99.90;;;;;;490522;241;28075;-73
2023/09/04 03:35:35;;;;;;;8.03;6.00;;;13.10;99.90;;;;;;490519;241;28169;-73
2023/09/04 03:37:36;;;;;;;6.70;6.00;;;13.10;99.90;;;;;;490487;241;28229;-73
2023/09/04 03:41:42;;;;;;;8.23;5.70;;;13.00;99.90;;;;;;490477;242;28822;-73
2023/09/04 03:43:50;;;;;;;6.40;5.33;;;13.00;99.90;;;;;;490524;241;28200;-74
2023/09/04 03:45:51;;;;;;;6.27;5.67;;;13.00;99.90;;;;;;490520;241;28232;-73
2023/09/04 03:49:57;;;;;;;5.70;5.20;;;13.00;99.90;;;;;;490543;241;28361;-73
2023/09/04 03:52:07;;;;;;;6.20;5.60;;;13.00;99.90;;;;;;490518;241;29546;-73
2023/09/04 03:54:08;;;;;;;5.73;5.20;;;13.00;99.90;;;;;;490494;241;28246;-73
2023/09/04 03:56:09;;;;;;;5.30;4.80;;;13.00;99.90;;;;;;490511;242;28413;-73
2023/09/04 03:58:10;;;;;;;6.60;5.67;;;13.00;99.90;;;;;;490531;241;28869;-76
2023/09/04 04:00:16;;;;;;;7.17;6.47;;;13.00;99.90;;;;;;490544;241;28772;-73
2023/09/04 04:02:17;;;;;;;7.30;6.60;;;13.00;99.90;;;;;;490508;242;28385;-72
2023/09/04 04:04:17;;;;;;;6.87;6.07;;;13.00;99.90;;;;;;490539;241;28422;-73
2023/09/04 04:06:20;;;;;;;11.23;6.07;;;13.30;99.90;;;;;;490524;241;28158;-73
2023/09/04 04:08:20;;;;;;;7.80;5.77;;;13.40;99.90;;;;;;490525;241;28269;-73
2023/09/04 04:10:27;;;;;;;5.90;5.40;;;13.40;99.90;;;;;;490507;242;28377;-73
2023/09/04 04:12:28;;;;;;;7.30;6.10;;;13.40;99.90;;;;;;490507;241;28818;-74
2023/09/04 04:14:35;;;;;;;7.70;6.37;;;13.40;99.90;;;;;;490479;241;28349;-74
2023/09/04 04:16:36;;;;;;;7.70;6.17;;;13.30;99.90;;;;;;490527;241;28221;-73
2023/09/04 04:18:39;;;;;;;7.83;6.90;;;13.50;99.90;;;;;;490500;242;28214;-73
2023/09/04 04:20:40;;;;;;;7.23;6.53;;;13.70;99.90;;;;;;490529;241;28587;-74
2023/09/04 04:22:47;;;;;;;7.20;6.50;;;13.80;99.90;;;;;;490510;241;28553;-75
2023/09/04 04:24:49;;;;;;;7.97;5.93;;;13.70;99.90;;;;;;490474;241;28260;-74
2023/09/04 04:26:56;;;;;;;7.27;6.57;;;13.90;99.90;;;;;;490471;242;28342;-73
2023/09/04 04:28:57;;;;;;;6.40;5.80;;;14.10;99.90;;;;;;490503;241;28218;-73
2023/09/04 04:31:01;;;;;;;7.53;5.63;;;14.10;99.90;;;;;;490484;241;28256;-73
2023/09/04 04:33:02;;;;;;;7.63;5.97;;;14.20;99.90;;;;;;490506;241;28259;-73
2023/09/04 04:35:07;;;;;;;6.83;5.23;;;14.30;99.90;;;;;;490482;241;28281;-73
2023/09/04 04:37:08;;;;;;;8.40;6.00;;;14.40;99.90;;;;;;490467;241;28307;-73
2023/09/04 04:39:09;;;;;;;6.43;5.90;;;14.50;99.90;;;;;;490502;241;28487;-73
2023/09/04 04:41:10;;;;;;;6.60;6.00;;;14.50;99.90;;;;;;490509;241;28623;-73
2023/09/04 04:43:15;;;;;;;6.10;5.50;;;14.50;99.90;;;;;;490499;241;28867;-73
2023/09/04 04:45:16;;;;;;;7.80;6.40;;;14.50;99.90;;;;;;490458;241;28431;-73
2023/09/04 04:47:17;;;;;;;7.60;6.00;;;14.50;99.90;;;;;;490503;241;28302;-73
2023/09/04 04:49:19;;;;;;;7.20;5.70;;;14.40;99.90;;;;;;490506;241;28698;-73
2023/09/04 04:51:35;;;;;;;5.73;5.23;;;14.50;99.90;;;;;;490485;241;28946;-75
2023/09/04 04:53:36;;;;;;;6.53;5.40;;;14.50;99.90;;;;;;490463;242;28308;-75
2023/09/04 04:55:41;;;;;;;7.73;5.47;;;14.50;99.90;;;;;;490495;241;28211;-73
2023/09/04 04:57:42;;;;;;;5.80;5.20;;;14.40;99.90;;;;;;490498;241;28530;-73
2023/09/04 04:59:46;;;;;;;6.00;5.50;;;14.40;99.90;;;;;;490494;241;28165;-74
2023/09/04 05:01:48;;;;;;;7.83;5.23;;;14.50;99.90;;;;;;490459;242;28842;-74
2023/09/04 05:03:49;;;;;;;6.97;4.97;;;14.40;99.90;;;;;;490474;241;28403;-73
2023/09/04 05:05:50;;;;;;;6.73;5.30;;;14.50;99.90;;;;;;490521;241;28309;-73
2023/09/04 05:07:54;;;;;;;5.77;5.17;;;14.50;99.90;;;;;;490492;241;28259;-73
2023/09/04 05:09:56;;;;;;;5.53;5.10;;;14.50;99.90;;;;;;490495;241;28264;-73
2023/09/04 05:12:06;;;;;;;5.70;4.87;;;14.50;99.90;;;;;;490454;241;28381;-73
2023/09/04 05:14:07;;;;;;;6.37;5.37;;;14.50;99.90;;;;;;490474;241;28563;-73
2023/09/04 05:16:08;;;;;;;7.30;6.37;;;14.40;99.90;;;;;;490527;241;28266;-73
2023/09/04 05:18:09;;;;;;;5.03;4.53;;;14.40;99.90;;;;;;490487;241;28929;-73
2023/09/04 05:20:17;;;;;;;5.20;4.57;;;14.40;99.90;;;;;;490505;241;29023;-73
2023/09/04 05:22:18;;;;;;;6.10;5.17;;;14.40;99.90;;;;;;490480;241;28561;-73
2023/09/04 05:24:22;;;;;;;6.37;5.10;;;14.40;99.90;;;;;;490531;241;28358;-73
2023/09/04 05:26:24;;;;;;;5.50;5.00;;;14.40;99.90;;;;;;490516;241;28825;-73
2023/09/04 05:28:25;;;;;;;6.60;5.50;;;14.40;99.90;;;;;;490522;241;28432;-73
2023/09/04 05:30:26;;;;;;;5.33;4.87;;;14.50;99.90;;;;;;490502;241;28832;-73
2023/09/04 05:32:28;;;;;;;5.77;4.90;;;14.50;99.90;;;;;;490431;241;29072;-75
2023/09/04 05:34:30;;;;;;;5.77;4.50;;;14.50;99.90;;;;;;490435;242;28309;-75
2023/09/04 05:36:31;;;;;;;5.37;4.83;;;14.60;99.90;;;;;;490506;241;28323;-76
2023/09/04 05:38:32;;;;;;;4.80;4.40;;;14.70;99.90;;;;;;490490;241;28849;-74
2023/09/04 05:40:39;;;;;;;6.03;5.40;;;14.70;99.90;;;;;;490475;241;28862;-74
2023/09/04 05:42:41;;;;;;;5.50;5.00;;;14.70;99.90;;;;;;490483;241;28423;-73
2023/09/04 05:44:45;;;;;;;4.93;4.40;;;14.90;99.90;;;;;;490517;241;28281;-72
2023/09/04 05:46:46;;;;;;;5.87;5.00;;;14.90;99.90;;;;;;490516;241;28392;-72
2023/09/04 05:48:51;;;;;;;5.20;4.73;;;14.90;99.90;;;;;;490474;241;28813;-73
2023/09/04 05:50:52;;;;;;;4.87;4.37;;;14.90;99.90;;;;;;490484;241;28617;-73
2023/09/04 05:52:56;;;;;;;5.27;4.80;;;14.90;99.90;;;;;;490499;241;28554;-75
2023/09/04 05:54:57;;;;;;;5.57;4.97;;;14.90;99.90;;;;;;490490;241;28806;-75
2023/09/04 05:57:07;;;;;;;4.57;4.20;;;14.90;99.90;;;;;;490478;241;28187;-75
2023/09/04 05:59:08;;;;;;;5.37;4.87;;;15.00;99.90;;;;;;490483;241;28906;-73
2023/09/04 06:01:09;;;;;;;6.13;4.60;;;14.90;99.90;;;;;;490463;241;28471;-75
2023/09/04 06:03:10;;;;;;;5.90;4.57;;;14.90;99.90;;;;;;490506;241;28945;-74
2023/09/04 06:05:13;;;;;;;5.23;4.73;;;15.00;99.90;;;;;;490506;241;29313;-73
2023/09/04 06:07:15;;;;;;;5.60;4.70;;;15.00;99.90;;;;;;490494;242;28845;-75
2023/09/04 06:09:15;;;;;;;4.90;4.47;;;15.10;99.90;;;;;;490442;241;28901;-76
2023/09/04 06:11:16;;;;;;;4.70;4.30;;;15.20;99.90;;;;;;490509;241;29013;-73
2023/09/04 06:13:18;;;;;;;4.90;4.40;;;15.30;99.90;;;;;;490503;241;29472;-73
2023/09/04 06:15:19;;;;;;;4.40;4.00;;;15.30;99.90;;;;;;490475;241;29267;-73
2023/09/04 06:17:20;;;;;;;5.80;5.03;;;15.40;99.90;;;;;;490452;241;28872;-75
2023/09/04 06:19:22;;;;;;;6.47;4.93;;;15.50;99.90;;;;;;490478;241;28837;-73
2023/09/04 06:21:23;;;;;;;5.77;4.73;;;15.50;99.90;;;;;;490536;241;28514;-76
2023/09/04 06:23:24;;;;;;;8.60;4.37;;;15.60;99.90;;;;;;490537;241;28843;-74
2023/09/04 06:25:32;;;;;;;5.00;4.50;;;15.60;99.90;;;;;;490508;241;28811;-75
2023/09/04 06:27:33;;;;;;;5.13;4.67;;;15.90;99.90;;;;;;490483;241;28949;-75
2023/09/04 06:29:40;;;;;;;4.30;4.00;;;16.00;99.90;;;;;;490540;241;28870;-76
2023/09/04 06:31:41;;;;;;;6.77;5.00;;;16.20;99.90;;;;;;490527;241;28924;-75
2023/09/04 06:33:48;;;;;;;6.07;4.70;;;16.20;99.90;;;;;;490501;241;28849;-76
2023/09/04 06:35:50;;;;;;;4.50;3.90;;;16.20;99.90;;;;;;490498;241;28892;-73
2023/09/04 06:37:52;;;;;;;4.60;4.17;;;16.40;99.90;;;;;;490477;241;28936;-73
2023/09/04 06:39:53;;;;;;;4.70;4.37;;;16.40;99.90;;;;;;490510;241;28928;-74
2023/09/04 06:42:00;;;;;;;6.33;4.90;;;16.50;99.90;;;;;;490501;241;29340;-75
2023/09/04 06:44:02;;;;;;;4.90;4.37;;;16.60;99.90;;;;;;490495;241;28851;-76
2023/09/04 06:48:07;;;;;;;5.10;4.53;;;16.70;99.90;;;;;;490452;242;28952;-75
2023/09/04 06:50:14;;;;;;;6.77;4.60;;;16.80;99.90;;;;;;490521;241;29449;-73
2023/09/04 06:52:16;;;;;;;4.90;4.50;;;16.80;99.90;;;;;;490511;241;28886;-75
2023/09/04 06:54:20;;;;;;;4.33;4.03;;;16.90;99.90;;;;;;490487;241;28833;-72
2023/09/04 06:56:21;;;;;;;4.40;4.00;;;16.90;99.90;;;;;;490447;241;28974;-75
2023/09/04 07:00:27;;;;;;;5.13;4.50;;;17.00;99.90;;;;;;490508;241;28838;-75
2023/09/04 07:02:31;;;;;;;5.57;5.00;;;17.00;99.90;;;;;;490480;241;28867;-75
2023/09/04 07:04:32;;;;;;;6.00;4.67;;;17.00;99.90;;;;;;490485;241;29283;-75
2023/09/04 07:06:35;;;;;;;4.53;4.13;;;17.00;99.90;;;;;;490467;241;29330;-75
2023/09/04 07:08:36;;;;;;;5.97;4.33;;;17.00;99.90;;;;;;490511;241;28824;-76
2023/09/04 07:10:40;;;;;;;5.00;4.50;;;17.10;99.90;;;;;;490462;241;28864;-76
2023/09/04 07:12:41;;;;;;;6.83;4.90;;;17.10;99.90;;;;;;490455;242;28931;-75
2023/09/04 07:14:43;;;;;;;5.43;4.70;;;17.20;99.90;;;;;;490474;241;28807;-74
2023/09/04 07:16:47;;;;;;;5.40;4.90;;;17.20;99.90;;;;;;490472;242;29286;-73
2023/09/04 07:18:48;;;;;;;7.97;4.27;;;17.30;99.90;;;;;;490484;242;28885;-76
2023/09/04 07:20:55;;;;;;;6.17;4.50;;;17.20;99.90;;;;;;490478;241;28913;-75
2023/09/04 07:22:57;;;;;;;5.60;5.10;;;17.30;99.90;;;;;;490488;241;28787;-75
2023/09/04 07:25:16;;;;;;;6.03;4.83;;;17.30;99.90;;;;;;490483;241;28972;-75
2023/09/04 07:27:17;;;;;;;5.30;4.80;;;17.50;99.90;;;;;;490532;241;28947;-73
2023/09/04 07:29:19;;;;;;;5.30;4.20;;;17.50;99.90;;;;;;490477;242;28856;-75
2023/09/04 07:31:20;;;;;;;7.40;5.10;;;17.50;99.90;;;;;;490458;241;28943;-76
2023/09/04 07:33:21;;;;;;;6.53;5.07;;;17.40;99.90;;;;;;490447;241;28823;-74
2023/09/04 07:35:22;;;;;;;8.10;4.53;;;17.50;99.90;;;;;;490462;241;29269;-75
2023/09/04 07:39:34;;;;;;;5.30;4.80;;;17.60;99.90;;;;;;490469;241;28830;-75
2023/09/04 07:41:35;;;;;;;5.23;4.73;;;17.70;99.90;;;;;;490468;242;28872;-75
2023/09/04 07:43:37;;;;;;;5.30;4.47;;;17.70;99.90;;;;;;490481;241;29306;-74
2023/09/04 07:45:38;;;;;;;5.20;4.70;;;17.80;99.90;;;;;;490504;242;29401;-77
2023/09/04 07:47:39;;;;;;;4.63;4.10;;;17.90;99.90;;;;;;490486;242;29323;-75
2023/09/04 07:49:40;;;;;;;5.43;4.60;;;17.90;99.90;;;;;;490509;241;28849;-76
2023/09/04 07:51:42;;;;;;;5.93;4.50;;;17.90;99.90;;;;;;490537;241;28903;-74
2023/09/04 07:53:43;;;;;;;8.67;4.60;;;18.00;99.90;;;;;;490510;241;29322;-76
2023/09/04 07:55:51;;;;;;;4.30;3.90;;;18.00;99.90;;;;;;490495;242;29449;-76
2023/09/04 07:57:52;;;;;;;4.90;4.40;;;18.20;99.90;;;;;;490488;242;28812;-76
2023/09/04 08:00:00;;;;;;;4.80;4.40;;;18.20;99.90;;;;;;490496;241;28837;-75
2023/09/04 08:02:01;;;;;;;4.90;4.40;;;18.30;99.90;;;;;;490532;241;28852;-75
2023/09/04 08:04:02;;;;;;;4.53;4.13;;;18.30;99.90;;;;;;490506;241;29452;-76
2023/09/04 08:06:03;;;;;;;5.10;4.50;;;18.40;99.90;;;;;;490501;241;28891;-75
2023/09/04 08:08:12;;;;;;;4.40;4.00;;;18.60;99.90;;;;;;490479;241;28916;-75
2023/09/04 08:10:13;;;;;;;4.80;4.30;;;18.60;99.90;;;;;;490513;241;28855;-75
2023/09/04 08:12:20;;;;;;;4.30;3.90;;;18.70;99.90;;;;;;490495;241;29315;-75
2023/09/04 08:14:22;;;;;;;5.33;4.83;;;18.80;99.90;;;;;;490514;241;28808;-75
2023/09/04 08:16:29;;;;;;;5.00;4.47;;;18.70;99.90;;;;;;490490;241;28837;-75
2023/09/04 08:18:30;;;;;;;4.50;3.87;;;18.90;99.90;;;;;;490505;241;28816;-76
2023/09/04 08:20:31;;;;;;;4.40;4.10;;;18.80;99.90;;;;;;490507;241;28876;-75
2023/09/04 08:22:32;;;;;;;4.50;4.10;;;19.00;99.90;;;;;;490524;241;29393;-75
2023/09/04 08:24:50;;;;;;;4.30;4.00;;;19.00;99.90;;;;;;490533;242;29328;-74
2023/09/04 08:26:50;;;;;;;5.60;4.20;;;19.10;99.90;;;;;;490517;241;28911;-73
2023/09/04 08:28:58;;;;;;;4.50;4.10;;;19.10;99.90;;;;;;490498;242;29294;-75
2023/09/04 08:30:59;;;;;;;5.47;4.33;;;19.00;99.90;;;;;;490534;241;28941;-75
2023/09/04 08:33:03;;;;;;;4.40;4.10;;;19.20;99.90;;;;;;490521;241;28893;-76
2023/09/04 08:35:04;;;;;;;4.50;4.10;;;19.20;99.90;;;;;;490499;241;28886;-74
2023/09/04 08:37:06;;;;;;;4.23;3.67;;;19.40;99.90;;;;;;490417;241;28861;-75
2023/09/04 08:39:07;;;;;;;4.67;4.17;;;19.40;99.90;;;;;;490584;241;29307;-76
2023/09/04 08:41:20;;;;;;;8.20;3.83;;;19.30;99.90;;;;;;490544;241;28791;-75
2023/09/04 08:43:21;;;;;;;4.87;4.40;;;19.30;99.90;;;;;;490535;241;28842;-75
2023/09/04 08:45:23;;;;;;;3.67;3.47;;;19.40;99.90;;;;;;490463;241;28808;-75
2023/09/04 08:47:27;;;;;;;4.27;3.90;;;19.40;99.90;;;;;;490504;241;29272;-75
2023/09/04 08:49:28;;;;;;;6.83;3.87;;;19.50;99.90;;;;;;490520;241;28859;-74
2023/09/04 08:51:35;;;;;;;8.13;4.33;;;19.80;99.90;;;;;;490492;241;28977;-73
2023/09/04 08:53:37;;;;;;;4.40;4.00;;;19.90;99.90;;;;;;490517;241;28797;-74
2023/09/04 08:55:38;;;;;;;4.50;4.10;;;19.90;99.90;;;;;;490459;241;28930;-74
2023/09/04 08:57:40;;;;;;;4.67;4.23;;;19.80;99.90;;;;;;490541;241;28875;-79
2023/09/04 08:59:44;;;;;;;4.30;3.90;;;20.10;99.90;;;;;;490548;242;29290;-74
2023/09/04 09:01:45;;;;;;;4.13;3.83;;;20.20;99.90;;;;;;490512;241;28825;-74
2023/09/04 09:03:46;;;;;;;4.30;3.80;;;20.30;99.90;;;;;;490466;241;28821;-74
2023/09/04 09:05:47;;;;;;;5.30;3.93;;;20.40;99.90;;;;;;490545;241;29505;-73
2023/09/04 09:07:52;;;;;;;4.00;3.60;;;20.40;99.90;;;;;;490510;242;29253;-74
2023/09/04 09:09:53;;;;;;;4.07;3.67;;;20.50;99.90;;;;;;490499;241;28792;-74
2023/09/04 09:11:54;;;;;;;4.60;4.20;;;20.50;99.90;;;;;;490466;241;28824;-73
2023/09/04 09:13:56;;;;;;;4.33;3.93;;;20.40;99.90;;;;;;490513;241;29364;-74
2023/09/04 09:18:02;;;;;;;3.83;3.53;;;20.80;99.90;;;;;;490464;241;28930;-74
2023/09/04 09:20:02;;;;;;;4.00;3.70;;;20.80;99.90;;;;;;490449;241;28861;-74
2023/09/04 09:22:04;;;;;;;4.00;3.70;;;20.80;99.90;;;;;;490461;241;30134;-75
2023/09/04 09:26:09;;;;;;;5.73;3.63;;;20.80;99.90;;;;;;490507;241;29334;-74
2023/09/04 09:28:10;;;;;;;4.37;3.30;;;20.80;99.90;;;;;;490501;241;28950;-74
2023/09/04 09:30:11;;;;;;;4.07;3.73;;;20.80;99.90;;;;;;490485;241;29226;-74
2023/09/04 09:32:14;;;;;;;4.03;3.33;;;21.00;99.90;;;;;;490454;241;29304;-74
2023/09/04 09:34:16;;;;;;;4.70;3.30;;;20.90;99.90;;;;;;490513;241;28833;-74
2023/09/04 09:36:19;;;;;;;3.67;3.37;;;20.90;99.90;;;;;;490482;241;29394;-74
2023/09/04 09:38:21;;;;;;;11.60;4.03;;;20.90;99.90;;;;;;490477;241;28868;-74
2023/09/04 09:40:22;;;;;;;3.57;3.30;;;20.90;99.90;;;;;;490475;241;29267;-73
2023/09/04 09:42:30;;;;;;;4.63;3.33;;;20.90;99.90;;;;;;490460;241;29310;-74
2023/09/04 09:44:31;;;;;;;4.17;3.77;;;20.90;99.90;;;;;;490532;241;28883;-73
2023/09/04 09:46:32;;;;;;;3.90;3.20;;;20.90;99.90;;;;;;490511;241;28789;-73
2023/09/04 09:48:39;;;;;;;3.77;3.47;;;20.90;99.90;;;;;;490491;241;29277;-74
2023/09/04 09:50:40;;;;;;;3.90;3.30;;;21.00;99.90;;;;;;490492;241;28818;-75
2023/09/04 09:52:41;;;;;;;4.10;3.70;;;21.10;99.90;;;;;;490482;241;28847;-75
2023/09/04 09:54:42;;;;;;;3.30;3.07;;;21.10;99.90;;;;;;490523;241;29361;-75
2023/09/04 09:56:50;;;;;;;3.83;3.53;;;21.30;99.90;;;;;;490525;241;29267;-75
2023/09/04 09:58:51;;;;;;;3.30;3.00;;;21.50;99.90;;;;;;490481;242;28850;-75
2023/09/04 10:00:53;;;;;;;3.50;3.20;;;21.60;99.90;;;;;;490524;241;28833;-74
2023/09/04 10:02:54;;;;;;;7.00;3.83;;;21.50;99.90;;;;;;490542;241;29260;-75
2023/09/04 10:06:59;;;;;;;3.37;3.07;;;21.40;99.90;;;;;;490500;241;28940;-74
2023/09/04 10:09:01;;;;;;;3.57;3.27;;;21.40;99.90;;;;;;490468;241;28835;-74
2023/09/04 10:11:02;;;;;;;4.40;3.97;;;21.40;99.90;;;;;;490506;241;29307;-74
2023/09/04 10:13:03;;;;;;;3.57;3.27;;;21.50;99.90;;;;;;490514;241;29355;-73
2023/09/04 10:15:04;;;;;;;3.87;3.13;;;21.70;99.90;;;;;;490485;241;29350;-74
2023/09/04 10:17:11;;;;;;;5.23;3.70;;;21.90;99.90;;;;;;490458;241;28888;-74
2023/09/04 10:19:10;;;;;;;6.50;3.27;;;22.00;99.90;;;;;;490452;241;28861;-74
2023/09/04 10:21:11;;;;;;;3.70;3.40;;;21.90;99.90;;;;;;490486;241;29387;-74
2023/09/04 10:23:13;;;;;;;3.63;3.30;;;22.00;99.90;;;;;;490494;241;29265;-74
2023/09/04 10:25:20;;;;;;;3.50;3.20;;;21.80;99.90;;;;;;490452;242;29370;-74
2023/09/04 10:27:21;;;;;;;4.30;3.40;;;21.80;99.90;;;;;;490456;241;28847;-73
2023/09/04 10:29:29;;;;;;;3.63;3.40;;;21.80;99.90;;;;;;490498;241;28805;-75
2023/09/04 10:31:30;;;;;;;8.03;3.57;;;21.90;99.90;;;;;;490461;241;28924;-74
2023/09/04 10:33:31;;;;;;;4.03;3.40;;;21.70;99.90;;;;;;490439;241;28856;-75
2023/09/04 10:35:32;;;;;;;3.43;3.13;;;21.70;99.90;;;;;;490454;241;29366;-74
2023/09/04 10:37:34;;;;;;;3.27;3.00;;;21.60;99.90;;;;;;490484;242;29370;-73
2023/09/04 10:41:39;;;;;;;5.00;3.90;;;21.50;99.90;;;;;;490492;241;28876;-75
2023/09/04 10:43:42;;;;;;;4.07;3.30;;;21.70;99.90;;;;;;490460;241;28868;-74
2023/09/04 10:45:43;;;;;;;6.30;3.60;;;21.70;99.90;;;;;;490470;241;28884;-74
2023/09/04 10:47:51;;;;;;;4.67;3.77;;;21.90;99.90;;;;;;490473;241;29392;-74
2023/09/04 10:49:52;;;;;;;4.13;3.73;;;21.90;99.90;;;;;;490488;241;28903;-73
2023/09/04 10:51:53;;;;;;;4.60;3.80;;;21.90;99.90;;;;;;490477;241;28865;-74
2023/09/04 10:53:55;;;;;;;3.83;3.53;;;22.00;99.90;;;;;;490482;241;29311;-73
2023/09/04 10:56:02;;;;;;;5.10;3.70;;;22.00;99.90;;;;;;490474;241;29993;-74
2023/09/04 10:58:03;;;;;;;4.00;3.60;;;21.90;99.90;;;;;;490493;241;28841;-73
2023/09/04 11:00:10;;;;;;;3.37;3.13;;;21.80;99.90;;;;;;490502;241;29288;-75
2023/09/04 11:02:12;;;;;;;4.67;4.00;;;22.20;99.90;;;;;;490481;241;28877;-75
2023/09/04 11:04:26;;;;;;;3.90;3.60;;;22.40;99.90;;;;;;490454;241;28821;-74
2023/09/04 11:06:27;;;;;;;3.40;3.10;;;22.40;99.90;;;;;;490489;241;28938;-75